Aviation Digital Data Service (ADDS)

Output produced by METARs form (1254 UTC 29 August 2016)
found at http://aviationweather.gov/adds/metars/
 
KRME 291205Z 2912/3012 30005KT P6SM SCT025 OVC040 
     FM291500 32010KT P6SM BKN050 
     FM300000 VRB03KT P6SM SKC 
     TEMPO 3008/3012 3SM BR